This is the latest recevied weather packets stored in our database for station/object JA0BES-13. If no packets are shown the sender has not sent any weather packets the latest 10 day(s).
| Time | Temp. | Humidity | Pressure | Rain* | Wind** | Luminosity | Snow |
|---|---|---|---|---|---|---|---|
| 1787374233 | 33.89° C | 80% | 1013.1 hPa | 0 mm | - | - | - |
| 1787373633 | 34.44° C | 79% | 1013 hPa | 0 mm | - | - | - |
| 1787373032 | 33.89° C | 80% | 1013.1 hPa | 0 mm | - | - | - |
| 1787372432 | 33.89° C | 80% | 1013 hPa | 0 mm | - | - | - |
| 1787371831 | 33.33° C | 81% | 1013.3 hPa | 0 mm | - | - | - |
| 1787370631 | 33.89° C | 79% | 1013.2 hPa | 0 mm | - | - | - |
| 1787370031 | 33.33° C | 82% | 1013.3 hPa | 0 mm | - | - | - |
| 1787369430 | 33.33° C | 83% | 1013.4 hPa | 0 mm | - | - | - |
| 1787368830 | 32.22° C | 87% | 1013.3 hPa | 0 mm | - | - | - |
| 1787368229 | 31.11° C | 92% | 1013.4 hPa | 0 mm | - | - | - |
| 1787367629 | 31.11° C | 95% | 1013.4 hPa | 0 mm | - | - | - |
| 1787367029 | 30.56° C | 96% | 1013.6 hPa | 0 mm | - | - | - |
| 1787366429 | 30.56° C | 95% | 1013.9 hPa | 0 mm | - | - | - |
| 1787365828 | 30° C | 96% | 1013.9 hPa | 0 mm | - | - | - |
| 1787365228 | 30° C | 97% | 1013.9 hPa | 0 mm | - | - | - |
| 1787364627 | 30° C | 100% | 1013.9 hPa | 0 mm | - | - | - |
| 1787364027 | 30° C | 100% | 1014 hPa | 0 mm | - | - | - |
| 1787363427 | 30° C | 100% | 1014 hPa | 0 mm | - | - | - |
| 1787362826 | 29.44° C | 100% | 1014 hPa | 0 mm | - | - | - |
| 1787362226 | 29.44° C | 100% | 1014 hPa | 0 mm | - | - | - |
| 1787361626 | 29.44° C | 100% | 1014.1 hPa | 0 mm | - | - | - |
| 1787361025 | 28.89° C | 100% | 1014.2 hPa | 0 mm | - | - | - |
| 1787360425 | 28.89° C | 100% | 1014.2 hPa | 0 mm | - | - | - |
| 1787359824 | 28.33° C | 100% | 1014.2 hPa | 0 mm | - | - | - |
| 1787359224 | 28.33° C | 100% | 1014 hPa | 0 mm | - | - | - |
* Rain since midnight (hover to see other rain measurements)
** Current wind speed in m/s (hover to see current wind gust speed)